sensor_id;sensor_type;location;lat;lon;timestamp;P1;durP1;ratioP1;P2;durP2;ratioP2
30048;SDS011;16879;50.852;15.602;2022-08-21T00:00:07;2.95;;;2.75;;
30048;SDS011;16879;50.852;15.602;2022-08-21T00:02:36;4.07;;;3.78;;
30048;SDS011;16879;50.852;15.602;2022-08-21T00:05:02;5.72;;;4.53;;
30048;SDS011;16879;50.852;15.602;2022-08-21T00:07:28;4.22;;;3.80;;
30048;SDS011;16879;50.852;15.602;2022-08-21T00:09:55;4.43;;;4.13;;
30048;SDS011;16879;50.852;15.602;2022-08-21T00:12:21;4.00;;;3.70;;
30048;SDS011;16879;50.852;15.602;2022-08-21T00:14:47;4.95;;;4.45;;
30048;SDS011;16879;50.852;15.602;2022-08-21T00:17:13;4.80;;;4.40;;
30048;SDS011;16879;50.852;15.602;2022-08-21T00:19:39;4.70;;;4.30;;
30048;SDS011;16879;50.852;15.602;2022-08-21T00:22:05;5.90;;;5.35;;
30048;SDS011;16879;50.852;15.602;2022-08-21T00:24:31;6.15;;;5.65;;
30048;SDS011;16879;50.852;15.602;2022-08-21T00:26:56;6.43;;;5.82;;
30048;SDS011;16879;50.852;15.602;2022-08-21T00:29:24;6.80;;;6.20;;
30048;SDS011;16879;50.852;15.602;2022-08-21T00:31:50;6.32;;;5.82;;
30048;SDS011;16879;50.852;15.602;2022-08-21T00:34:16;8.60;;;7.78;;
30048;SDS011;16879;50.852;15.602;2022-08-21T00:36:41;7.93;;;7.22;;
30048;SDS011;16879;50.852;15.602;2022-08-21T00:39:08;7.30;;;6.70;;
30048;SDS011;16879;50.852;15.602;2022-08-21T00:41:35;6.85;;;6.15;;
30048;SDS011;16879;50.852;15.602;2022-08-21T00:44:02;7.75;;;6.95;;
30048;SDS011;16879;50.852;15.602;2022-08-21T00:46:29;9.02;;;8.23;;
30048;SDS011;16879;50.852;15.602;2022-08-21T00:48:55;9.63;;;8.82;;
30048;SDS011;16879;50.852;15.602;2022-08-21T00:51:24;9.95;;;8.95;;
30048;SDS011;16879;50.852;15.602;2022-08-21T00:53:58;9.77;;;8.88;;
30048;SDS011;16879;50.852;15.602;2022-08-21T00:56:26;8.73;;;7.95;;
30048;SDS011;16879;50.852;15.602;2022-08-21T00:58:53;8.57;;;7.78;;
30048;SDS011;16879;50.852;15.602;2022-08-21T01:01:22;10.50;;;9.55;;
30048;SDS011;16879;50.852;15.602;2022-08-21T01:03:48;11.52;;;10.18;;
30048;SDS011;16879;50.852;15.602;2022-08-21T01:06:15;12.02;;;10.93;;
30048;SDS011;16879;50.852;15.602;2022-08-21T01:08:41;10.77;;;9.75;;
30048;SDS011;16879;50.852;15.602;2022-08-21T01:11:07;12.00;;;10.45;;
30048;SDS011;16879;50.852;15.602;2022-08-21T01:13:34;10.90;;;9.90;;
30048;SDS011;16879;50.852;15.602;2022-08-21T01:16:03;12.02;;;10.93;;
30048;SDS011;16879;50.852;15.602;2022-08-21T01:18:34;10.95;;;9.95;;
30048;SDS011;16879;50.852;15.602;2022-08-21T01:23:37;11.07;;;9.98;;
30048;SDS011;16879;50.852;15.602;2022-08-21T01:26:05;10.38;;;9.38;;
30048;SDS011;16879;50.852;15.602;2022-08-21T01:28:33;9.73;;;8.82;;
30048;SDS011;16879;50.852;15.602;2022-08-21T01:31:05;10.30;;;9.38;;
30048;SDS011;16879;50.852;15.602;2022-08-21T01:33:32;11.63;;;10.57;;
30048;SDS011;16879;50.852;15.602;2022-08-21T01:35:59;11.48;;;10.23;;
30048;SDS011;16879;50.852;15.602;2022-08-21T01:38:24;11.55;;;10.43;;
30048;SDS011;16879;50.852;15.602;2022-08-21T01:40:50;11.68;;;10.48;;
30048;SDS011;16879;50.852;15.602;2022-08-21T01:43:17;13.40;;;10.85;;
30048;SDS011;16879;50.852;15.602;2022-08-21T01:45:42;10.90;;;9.88;;
30048;SDS011;16879;50.852;15.602;2022-08-21T01:48:08;11.55;;;10.48;;
30048;SDS011;16879;50.852;15.602;2022-08-21T01:50:35;10.30;;;9.35;;
30048;SDS011;16879;50.852;15.602;2022-08-21T01:53:01;11.48;;;9.95;;
30048;SDS011;16879;50.852;15.602;2022-08-21T01:55:27;10.23;;;9.32;;
30048;SDS011;16879;50.852;15.602;2022-08-21T01:57:54;9.52;;;8.57;;
30048;SDS011;16879;50.852;15.602;2022-08-21T02:00:20;9.75;;;8.85;;
30048;SDS011;16879;50.852;15.602;2022-08-21T02:02:50;9.90;;;9.00;;
30048;SDS011;16879;50.852;15.602;2022-08-21T02:05:16;9.68;;;8.88;;
30048;SDS011;16879;50.852;15.602;2022-08-21T02:07:44;9.02;;;8.23;;
30048;SDS011;16879;50.852;15.602;2022-08-21T02:10:15;9.88;;;8.88;;
30048;SDS011;16879;50.852;15.602;2022-08-21T02:12:43;8.57;;;7.68;;
30048;SDS011;16879;50.852;15.602;2022-08-21T02:15:09;8.32;;;7.60;;
30048;SDS011;16879;50.852;15.602;2022-08-21T02:17:42;9.48;;;8.57;;
30048;SDS011;16879;50.852;15.602;2022-08-21T02:20:15;11.02;;;9.93;;
30048;SDS011;16879;50.852;15.602;2022-08-21T02:22:44;8.70;;;7.90;;
30048;SDS011;16879;50.852;15.602;2022-08-21T02:25:11;9.57;;;8.77;;
30048;SDS011;16879;50.852;15.602;2022-08-21T02:27:38;10.63;;;8.82;;
30048;SDS011;16879;50.852;15.602;2022-08-21T02:30:11;14.23;;;9.50;;
30048;SDS011;16879;50.852;15.602;2022-08-21T02:32:42;9.05;;;8.07;;
30048;SDS011;16879;50.852;15.602;2022-08-21T02:35:09;11.65;;;8.85;;
30048;SDS011;16879;50.852;15.602;2022-08-21T02:37:46;9.93;;;8.90;;
30048;SDS011;16879;50.852;15.602;2022-08-21T02:40:14;9.65;;;8.75;;
30048;SDS011;16879;50.852;15.602;2022-08-21T02:42:42;9.77;;;8.85;;
30048;SDS011;16879;50.852;15.602;2022-08-21T02:45:09;9.55;;;8.55;;
30048;SDS011;16879;50.852;15.602;2022-08-21T02:47:36;8.30;;;7.60;;
30048;SDS011;16879;50.852;15.602;2022-08-21T02:50:04;8.73;;;7.90;;
30048;SDS011;16879;50.852;15.602;2022-08-21T02:52:31;7.97;;;7.22;;
30048;SDS011;16879;50.852;15.602;2022-08-21T02:54:58;6.95;;;6.35;;
30048;SDS011;16879;50.852;15.602;2022-08-21T02:57:24;7.47;;;6.82;;
30048;SDS011;16879;50.852;15.602;2022-08-21T02:59:51;7.85;;;7.15;;
30048;SDS011;16879;50.852;15.602;2022-08-21T03:02:17;7.30;;;6.70;;
30048;SDS011;16879;50.852;15.602;2022-08-21T03:04:43;7.50;;;6.80;;
30048;SDS011;16879;50.852;15.602;2022-08-21T03:07:09;6.68;;;6.00;;
30048;SDS011;16879;50.852;15.602;2022-08-21T03:09:35;10.25;;;5.43;;
30048;SDS011;16879;50.852;15.602;2022-08-21T03:12:02;5.57;;;5.07;;
30048;SDS011;16879;50.852;15.602;2022-08-21T03:14:29;4.38;;;3.97;;
30048;SDS011;16879;50.852;15.602;2022-08-21T03:16:55;4.88;;;4.47;;
30048;SDS011;16879;50.852;15.602;2022-08-21T03:19:20;4.38;;;3.97;;
30048;SDS011;16879;50.852;15.602;2022-08-21T03:21:46;5.45;;;3.95;;
30048;SDS011;16879;50.852;15.602;2022-08-21T03:24:12;4.47;;;4.13;;
30048;SDS011;16879;50.852;15.602;2022-08-21T03:26:38;5.18;;;4.03;;
30048;SDS011;16879;50.852;15.602;2022-08-21T03:29:04;4.95;;;4.47;;
30048;SDS011;16879;50.852;15.602;2022-08-21T03:31:32;4.97;;;4.47;;
30048;SDS011;16879;50.852;15.602;2022-08-21T03:33:58;4.18;;;3.88;;
30048;SDS011;16879;50.852;15.602;2022-08-21T03:36:24;3.95;;;3.55;;
30048;SDS011;16879;50.852;15.602;2022-08-21T03:38:50;4.85;;;3.80;;
30048;SDS011;16879;50.852;15.602;2022-08-21T03:41:16;3.85;;;3.55;;
30048;SDS011;16879;50.852;15.602;2022-08-21T03:43:42;4.53;;;4.13;;
30048;SDS011;16879;50.852;15.602;2022-08-21T03:46:08;4.32;;;3.92;;
30048;SDS011;16879;50.852;15.602;2022-08-21T03:48:36;3.42;;;3.13;;
30048;SDS011;16879;50.852;15.602;2022-08-21T03:51:02;4.75;;;3.50;;
30048;SDS011;16879;50.852;15.602;2022-08-21T03:53:28;4.03;;;3.70;;
30048;SDS011;16879;50.852;15.602;2022-08-21T03:55:55;4.20;;;3.80;;
30048;SDS011;16879;50.852;15.602;2022-08-21T03:58:22;3.42;;;2.92;;
30048;SDS011;16879;50.852;15.602;2022-08-21T04:00:50;3.15;;;2.95;;
30048;SDS011;16879;50.852;15.602;2022-08-21T04:03:19;3.50;;;3.13;;
30048;SDS011;16879;50.852;15.602;2022-08-21T04:05:45;3.17;;;2.97;;
30048;SDS011;16879;50.852;15.602;2022-08-21T04:08:12;3.20;;;2.90;;
30048;SDS011;16879;50.852;15.602;2022-08-21T04:10:39;3.50;;;3.30;;
30048;SDS011;16879;50.852;15.602;2022-08-21T04:13:09;2.80;;;2.60;;
30048;SDS011;16879;50.852;15.602;2022-08-21T04:15:34;3.08;;;2.88;;
30048;SDS011;16879;50.852;15.602;2022-08-21T04:18:00;3.55;;;3.25;;
30048;SDS011;16879;50.852;15.602;2022-08-21T04:20:28;4.00;;;3.63;;
30048;SDS011;16879;50.852;15.602;2022-08-21T04:22:54;3.40;;;3.10;;
30048;SDS011;16879;50.852;15.602;2022-08-21T04:25:21;5.28;;;3.00;;
30048;SDS011;16879;50.852;15.602;2022-08-21T04:27:50;3.15;;;2.95;;
30048;SDS011;16879;50.852;15.602;2022-08-21T04:30:16;3.92;;;3.38;;
30048;SDS011;16879;50.852;15.602;2022-08-21T04:32:43;3.58;;;3.38;;
30048;SDS011;16879;50.852;15.602;2022-08-21T04:35:11;4.05;;;3.75;;
30048;SDS011;16879;50.852;15.602;2022-08-21T04:37:41;3.60;;;3.30;;
30048;SDS011;16879;50.852;15.602;2022-08-21T04:40:08;2.95;;;2.75;;
30048;SDS011;16879;50.852;15.602;2022-08-21T04:42:40;2.15;;;2.05;;
30048;SDS011;16879;50.852;15.602;2022-08-21T04:45:26;2.38;;;2.25;;
30048;SDS011;16879;50.852;15.602;2022-08-21T04:47:55;4.05;;;3.35;;
30048;SDS011;16879;50.852;15.602;2022-08-21T04:50:25;3.53;;;3.03;;
30048;SDS011;16879;50.852;15.602;2022-08-21T04:53:00;3.30;;;3.00;;
30048;SDS011;16879;50.852;15.602;2022-08-21T04:55:26;2.80;;;2.60;;
30048;SDS011;16879;50.852;15.602;2022-08-21T04:57:53;4.03;;;3.35;;
30048;SDS011;16879;50.852;15.602;2022-08-21T05:00:22;5.57;;;4.53;;
30048;SDS011;16879;50.852;15.602;2022-08-21T05:02:50;3.50;;;3.25;;
30048;SDS011;16879;50.852;15.602;2022-08-21T05:05:19;4.55;;;4.15;;
30048;SDS011;16879;50.852;15.602;2022-08-21T05:07:45;5.18;;;4.35;;
30048;SDS011;16879;50.852;15.602;2022-08-21T05:10:12;4.70;;;4.30;;
30048;SDS011;16879;50.852;15.602;2022-08-21T05:12:39;4.65;;;4.25;;
30048;SDS011;16879;50.852;15.602;2022-08-21T05:15:07;4.82;;;4.43;;
30048;SDS011;16879;50.852;15.602;2022-08-21T05:17:33;5.40;;;4.40;;
30048;SDS011;16879;50.852;15.602;2022-08-21T05:19:59;4.80;;;4.32;;
30048;SDS011;16879;50.852;15.602;2022-08-21T05:22:25;6.60;;;5.75;;
30048;SDS011;16879;50.852;15.602;2022-08-21T05:24:51;4.50;;;4.10;;
30048;SDS011;16879;50.852;15.602;2022-08-21T05:27:17;5.55;;;4.63;;
30048;SDS011;16879;50.852;15.602;2022-08-21T05:29:43;4.05;;;3.75;;
30048;SDS011;16879;50.852;15.602;2022-08-21T05:32:12;4.55;;;4.13;;
30048;SDS011;16879;50.852;15.602;2022-08-21T05:34:38;5.15;;;4.22;;
30048;SDS011;16879;50.852;15.602;2022-08-21T05:37:04;5.43;;;4.25;;
30048;SDS011;16879;50.852;15.602;2022-08-21T05:39:31;4.90;;;4.40;;
30048;SDS011;16879;50.852;15.602;2022-08-21T05:41:57;5.13;;;3.65;;
30048;SDS011;16879;50.852;15.602;2022-08-21T05:44:23;3.50;;;3.22;;
30048;SDS011;16879;50.852;15.602;2022-08-21T05:46:49;4.65;;;4.13;;
30048;SDS011;16879;50.852;15.602;2022-08-21T05:49:15;6.20;;;3.88;;
30048;SDS011;16879;50.852;15.602;2022-08-21T05:51:41;4.32;;;3.92;;
30048;SDS011;16879;50.852;15.602;2022-08-21T05:54:07;4.60;;;4.20;;
30048;SDS011;16879;50.852;15.602;2022-08-21T05:56:33;5.18;;;4.22;;
30048;SDS011;16879;50.852;15.602;2022-08-21T05:58:59;4.78;;;3.78;;
30048;SDS011;16879;50.852;15.602;2022-08-21T06:01:24;7.72;;;3.80;;
30048;SDS011;16879;50.852;15.602;2022-08-21T06:03:50;3.95;;;3.55;;
30048;SDS011;16879;50.852;15.602;2022-08-21T06:06:17;4.53;;;4.13;;
30048;SDS011;16879;50.852;15.602;2022-08-21T06:08:43;5.00;;;3.60;;
30048;SDS011;16879;50.852;15.602;2022-08-21T06:11:09;4.22;;;3.28;;
30048;SDS011;16879;50.852;15.602;2022-08-21T06:13:36;4.68;;;3.50;;
30048;SDS011;16879;50.852;15.602;2022-08-21T06:16:07;4.32;;;3.40;;
30048;SDS011;16879;50.852;15.602;2022-08-21T06:18:35;6.40;;;3.67;;
30048;SDS011;16879;50.852;15.602;2022-08-21T06:21:01;5.10;;;3.80;;
30048;SDS011;16879;50.852;15.602;2022-08-21T06:23:28;5.78;;;3.83;;
30048;SDS011;16879;50.852;15.602;2022-08-21T06:25:57;4.82;;;3.10;;
30048;SDS011;16879;50.852;15.602;2022-08-21T06:28:23;3.63;;;3.22;;
30048;SDS011;16879;50.852;15.602;2022-08-21T06:30:49;4.25;;;3.53;;
30048;SDS011;16879;50.852;15.602;2022-08-21T06:33:16;4.75;;;3.72;;
30048;SDS011;16879;50.852;15.602;2022-08-21T06:35:48;3.40;;;3.10;;
30048;SDS011;16879;50.852;15.602;2022-08-21T06:38:14;4.38;;;3.13;;
30048;SDS011;16879;50.852;15.602;2022-08-21T06:40:40;3.47;;;3.03;;
30048;SDS011;16879;50.852;15.602;2022-08-21T06:43:08;3.75;;;3.42;;
30048;SDS011;16879;50.852;15.602;2022-08-21T06:45:35;4.93;;;3.50;;
30048;SDS011;16879;50.852;15.602;2022-08-21T06:48:02;4.03;;;3.55;;
30048;SDS011;16879;50.852;15.602;2022-08-21T06:50:29;4.63;;;4.15;;
30048;SDS011;16879;50.852;15.602;2022-08-21T06:53:02;3.28;;;2.97;;
30048;SDS011;16879;50.852;15.602;2022-08-21T06:55:33;3.42;;;3.13;;
30048;SDS011;16879;50.852;15.602;2022-08-21T06:57:59;3.55;;;3.08;;
30048;SDS011;16879;50.852;15.602;2022-08-21T07:00:25;4.75;;;3.42;;
30048;SDS011;16879;50.852;15.602;2022-08-21T07:02:51;5.57;;;3.65;;
30048;SDS011;16879;50.852;15.602;2022-08-21T07:05:17;3.92;;;3.10;;
30048;SDS011;16879;50.852;15.602;2022-08-21T07:07:43;4.35;;;3.75;;
30048;SDS011;16879;50.852;15.602;2022-08-21T07:10:10;5.47;;;3.47;;
30048;SDS011;16879;50.852;15.602;2022-08-21T07:12:36;4.55;;;3.65;;
30048;SDS011;16879;50.852;15.602;2022-08-21T07:15:02;4.38;;;3.58;;
30048;SDS011;16879;50.852;15.602;2022-08-21T07:17:29;4.63;;;2.58;;
30048;SDS011;16879;50.852;15.602;2022-08-21T07:19:55;3.30;;;3.00;;
30048;SDS011;16879;50.852;15.602;2022-08-21T07:22:22;3.13;;;2.83;;
30048;SDS011;16879;50.852;15.602;2022-08-21T07:24:48;4.88;;;3.13;;
30048;SDS011;16879;50.852;15.602;2022-08-21T07:27:14;4.95;;;2.97;;
30048;SDS011;16879;50.852;15.602;2022-08-21T07:29:40;3.70;;;3.40;;
30048;SDS011;16879;50.852;15.602;2022-08-21T07:32:07;5.00;;;3.20;;
30048;SDS011;16879;50.852;15.602;2022-08-21T07:34:36;3.53;;;3.30;;
30048;SDS011;16879;50.852;15.602;2022-08-21T07:37:03;3.65;;;3.03;;
30048;SDS011;16879;50.852;15.602;2022-08-21T07:39:29;4.65;;;4.22;;
30048;SDS011;16879;50.852;15.602;2022-08-21T07:41:57;3.28;;;3.08;;
30048;SDS011;16879;50.852;15.602;2022-08-21T07:44:23;3.95;;;3.58;;
30048;SDS011;16879;50.852;15.602;2022-08-21T07:46:49;3.63;;;2.85;;
30048;SDS011;16879;50.852;15.602;2022-08-21T07:49:15;3.75;;;3.03;;
30048;SDS011;16879;50.852;15.602;2022-08-21T07:51:42;4.90;;;2.97;;
30048;SDS011;16879;50.852;15.602;2022-08-21T07:54:08;3.33;;;3.03;;
30048;SDS011;16879;50.852;15.602;2022-08-21T07:56:34;4.97;;;2.88;;
30048;SDS011;16879;50.852;15.602;2022-08-21T07:59:00;6.18;;;2.97;;
30048;SDS011;16879;50.852;15.602;2022-08-21T08:01:27;4.22;;;2.58;;
30048;SDS011;16879;50.852;15.602;2022-08-21T08:03:54;2.85;;;2.35;;
30048;SDS011;16879;50.852;15.602;2022-08-21T08:06:22;2.72;;;2.38;;
30048;SDS011;16879;50.852;15.602;2022-08-21T08:08:49;2.17;;;1.98;;
30048;SDS011;16879;50.852;15.602;2022-08-21T08:11:15;2.75;;;1.65;;
30048;SDS011;16879;50.852;15.602;2022-08-21T08:13:42;4.70;;;3.50;;
30048;SDS011;16879;50.852;15.602;2022-08-21T08:16:12;3.55;;;2.22;;
30048;SDS011;16879;50.852;15.602;2022-08-21T08:18:39;3.50;;;2.58;;
30048;SDS011;16879;50.852;15.602;2022-08-21T08:21:06;4.15;;;2.75;;
30048;SDS011;16879;50.852;15.602;2022-08-21T08:23:33;3.53;;;2.65;;
30048;SDS011;16879;50.852;15.602;2022-08-21T08:25:59;3.05;;;2.70;;
30048;SDS011;16879;50.852;15.602;2022-08-21T08:28:27;7.47;;;2.95;;
30048;SDS011;16879;50.852;15.602;2022-08-21T08:30:54;6.20;;;3.10;;
30048;SDS011;16879;50.852;15.602;2022-08-21T08:33:20;4.45;;;3.30;;
30048;SDS011;16879;50.852;15.602;2022-08-21T08:35:48;4.43;;;3.20;;
30048;SDS011;16879;50.852;15.602;2022-08-21T08:38:16;3.85;;;3.17;;
30048;SDS011;16879;50.852;15.602;2022-08-21T08:43:52;7.80;;;3.55;;
30048;SDS011;16879;50.852;15.602;2022-08-21T08:49:15;9.00;;;2.88;;
30048;SDS011;16879;50.852;15.602;2022-08-21T08:51:53;3.55;;;2.85;;
30048;SDS011;16879;50.852;15.602;2022-08-21T08:54:35;5.07;;;3.40;;
30048;SDS011;16879;50.852;15.602;2022-08-21T08:57:09;3.83;;;2.65;;
30048;SDS011;16879;50.852;15.602;2022-08-21T08:59:49;6.40;;;2.42;;
30048;SDS011;16879;50.852;15.602;2022-08-21T09:02:17;3.80;;;2.88;;
30048;SDS011;16879;50.852;15.602;2022-08-21T09:04:45;4.28;;;2.90;;
30048;SDS011;16879;50.852;15.602;2022-08-21T09:15:24;7.30;;;2.87;;
30048;SDS011;16879;50.852;15.602;2022-08-21T09:21:20;5.50;;;2.58;;
30048;SDS011;16879;50.852;15.602;2022-08-21T09:29:39;4.90;;;4.00;;
30048;SDS011;16879;50.852;15.602;2022-08-21T09:32:27;7.88;;;4.40;;
30048;SDS011;16879;50.852;15.602;2022-08-21T09:35:04;9.10;;;3.53;;
30048;SDS011;16879;50.852;15.602;2022-08-21T09:37:31;3.88;;;2.83;;
30048;SDS011;16879;50.852;15.602;2022-08-21T09:39:59;5.85;;;3.10;;
30048;SDS011;16879;50.852;15.602;2022-08-21T09:42:28;4.28;;;2.45;;
30048;SDS011;16879;50.852;15.602;2022-08-21T09:45:08;5.82;;;3.15;;
30048;SDS011;16879;50.852;15.602;2022-08-21T09:47:37;9.65;;;3.35;;
30048;SDS011;16879;50.852;15.602;2022-08-21T09:50:13;5.95;;;3.13;;
30048;SDS011;16879;50.852;15.602;2022-08-21T09:52:43;7.80;;;3.20;;
30048;SDS011;16879;50.852;15.602;2022-08-21T09:55:16;5.63;;;2.70;;
30048;SDS011;16879;50.852;15.602;2022-08-21T09:58:12;6.28;;;2.95;;
30048;SDS011;16879;50.852;15.602;2022-08-21T10:00:39;5.80;;;2.92;;
30048;SDS011;16879;50.852;15.602;2022-08-21T10:03:13;4.22;;;2.63;;
30048;SDS011;16879;50.852;15.602;2022-08-21T10:05:52;6.65;;;3.25;;
30048;SDS011;16879;50.852;15.602;2022-08-21T10:08:27;5.68;;;3.50;;
30048;SDS011;16879;50.852;15.602;2022-08-21T10:10:56;3.40;;;2.67;;
30048;SDS011;16879;50.852;15.602;2022-08-21T10:24:35;4.47;;;2.90;;
30048;SDS011;16879;50.852;15.602;2022-08-21T10:30:31;4.35;;;2.83;;
30048;SDS011;16879;50.852;15.602;2022-08-21T10:49:22;6.65;;;3.35;;
30048;SDS011;16879;50.852;15.602;2022-08-21T10:54:35;5.32;;;2.75;;
30048;SDS011;16879;50.852;15.602;2022-08-21T10:57:09;4.13;;;2.85;;
30048;SDS011;16879;50.852;15.602;2022-08-21T11:02:57;4.60;;;2.88;;
30048;SDS011;16879;50.852;15.602;2022-08-21T11:05:07;7.18;;;3.67;;
30048;SDS011;16879;50.852;15.602;2022-08-21T11:10:26;5.82;;;3.22;;
30048;SDS011;16879;50.852;15.602;2022-08-21T11:13:00;11.57;;;3.08;;
30048;SDS011;16879;50.852;15.602;2022-08-21T11:18:04;5.13;;;2.80;;
30048;SDS011;16879;50.852;15.602;2022-08-21T11:23:45;5.47;;;3.08;;
30048;SDS011;16879;50.852;15.602;2022-08-21T11:29:21;5.70;;;3.30;;
30048;SDS011;16879;50.852;15.602;2022-08-21T11:34:36;6.00;;;3.55;;
30048;SDS011;16879;50.852;15.602;2022-08-21T11:42:45;5.32;;;3.53;;
30048;SDS011;16879;50.852;15.602;2022-08-21T11:45:25;4.22;;;2.88;;
30048;SDS011;16879;50.852;15.602;2022-08-21T11:50:56;5.30;;;3.33;;
30048;SDS011;16879;50.852;15.602;2022-08-21T11:58:26;3.30;;;2.83;;
30048;SDS011;16879;50.852;15.602;2022-08-21T12:01:01;5.78;;;3.15;;
30048;SDS011;16879;50.852;15.602;2022-08-21T12:03:33;4.97;;;3.75;;
30048;SDS011;16879;50.852;15.602;2022-08-21T12:08:34;5.22;;;3.17;;
30048;SDS011;16879;50.852;15.602;2022-08-21T12:11:09;6.45;;;4.05;;
30048;SDS011;16879;50.852;15.602;2022-08-21T12:13:51;5.70;;;3.47;;
30048;SDS011;16879;50.852;15.602;2022-08-21T12:19:08;2.92;;;2.70;;
30048;SDS011;16879;50.852;15.602;2022-08-21T12:21:54;2.90;;;2.63;;
30048;SDS011;16879;50.852;15.602;2022-08-21T12:26:53;4.53;;;3.35;;
30048;SDS011;16879;50.852;15.602;2022-08-21T12:29:25;6.45;;;3.58;;
30048;SDS011;16879;50.852;15.602;2022-08-21T12:34:38;4.28;;;3.15;;
30048;SDS011;16879;50.852;15.602;2022-08-21T12:40:00;5.72;;;3.42;;
30048;SDS011;16879;50.852;15.602;2022-08-21T12:42:37;4.78;;;3.20;;
30048;SDS011;16879;50.852;15.602;2022-08-21T12:45:26;5.05;;;4.13;;
30048;SDS011;16879;50.852;15.602;2022-08-21T12:48:01;6.82;;;3.75;;
30048;SDS011;16879;50.852;15.602;2022-08-21T12:50:40;3.80;;;3.35;;
30048;SDS011;16879;50.852;15.602;2022-08-21T12:53:12;4.82;;;3.10;;
30048;SDS011;16879;50.852;15.602;2022-08-21T12:55:53;3.70;;;3.35;;
30048;SDS011;16879;50.852;15.602;2022-08-21T12:58:25;3.45;;;2.97;;
30048;SDS011;16879;50.852;15.602;2022-08-21T13:01:13;4.57;;;3.70;;
30048;SDS011;16879;50.852;15.602;2022-08-21T13:03:49;5.13;;;3.67;;
30048;SDS011;16879;50.852;15.602;2022-08-21T13:06:20;7.50;;;3.72;;
30048;SDS011;16879;50.852;15.602;2022-08-21T13:08:50;6.55;;;3.60;;
30048;SDS011;16879;50.852;15.602;2022-08-21T13:11:21;8.45;;;4.13;;
30048;SDS011;16879;50.852;15.602;2022-08-21T13:13:49;4.85;;;3.58;;
30048;SDS011;16879;50.852;15.602;2022-08-21T13:16:25;4.72;;;3.38;;
30048;SDS011;16879;50.852;15.602;2022-08-21T13:19:00;4.68;;;4.20;;
30048;SDS011;16879;50.852;15.602;2022-08-21T13:21:29;5.45;;;3.38;;
30048;SDS011;16879;50.852;15.602;2022-08-21T13:24:09;5.13;;;4.10;;
30048;SDS011;16879;50.852;15.602;2022-08-21T13:26:50;7.72;;;4.57;;
30048;SDS011;16879;50.852;15.602;2022-08-21T13:29:17;6.15;;;4.07;;
30048;SDS011;16879;50.852;15.602;2022-08-21T13:32:07;8.13;;;4.53;;
30048;SDS011;16879;50.852;15.602;2022-08-21T13:34:34;5.22;;;3.92;;
30048;SDS011;16879;50.852;15.602;2022-08-21T13:37:06;5.63;;;4.22;;
30048;SDS011;16879;50.852;15.602;2022-08-21T13:39:33;4.82;;;4.32;;
30048;SDS011;16879;50.852;15.602;2022-08-21T13:42:00;9.02;;;4.05;;
30048;SDS011;16879;50.852;15.602;2022-08-21T13:47:01;8.52;;;4.03;;
30048;SDS011;16879;50.852;15.602;2022-08-21T13:49:30;6.38;;;4.22;;
30048;SDS011;16879;50.852;15.602;2022-08-21T13:52:05;5.75;;;3.72;;
30048;SDS011;16879;50.852;15.602;2022-08-21T13:54:56;5.35;;;3.80;;
30048;SDS011;16879;50.852;15.602;2022-08-21T13:57:26;4.95;;;3.72;;
30048;SDS011;16879;50.852;15.602;2022-08-21T14:00:09;4.82;;;4.32;;
30048;SDS011;16879;50.852;15.602;2022-08-21T14:02:38;6.53;;;4.13;;
30048;SDS011;16879;50.852;15.602;2022-08-21T14:05:07;6.35;;;3.78;;
30048;SDS011;16879;50.852;15.602;2022-08-21T14:07:39;6.20;;;3.80;;
30048;SDS011;16879;50.852;15.602;2022-08-21T14:10:16;7.15;;;4.13;;
30048;SDS011;16879;50.852;15.602;2022-08-21T14:12:49;9.52;;;4.25;;
30048;SDS011;16879;50.852;15.602;2022-08-21T14:15:22;5.28;;;3.55;;
30048;SDS011;16879;50.852;15.602;2022-08-21T14:17:50;4.40;;;3.60;;
30048;SDS011;16879;50.852;15.602;2022-08-21T14:20:29;4.65;;;3.70;;
30048;SDS011;16879;50.852;15.602;2022-08-21T14:22:57;5.25;;;3.65;;
30048;SDS011;16879;50.852;15.602;2022-08-21T14:27:50;5.07;;;3.90;;
30048;SDS011;16879;50.852;15.602;2022-08-21T14:30:37;4.55;;;3.35;;
30048;SDS011;16879;50.852;15.602;2022-08-21T14:33:10;5.88;;;3.38;;
30048;SDS011;16879;50.852;15.602;2022-08-21T14:35:38;3.33;;;2.78;;
30048;SDS011;16879;50.852;15.602;2022-08-21T14:38:14;6.10;;;4.30;;
30048;SDS011;16879;50.852;15.602;2022-08-21T14:40:43;6.70;;;4.20;;
30048;SDS011;16879;50.852;15.602;2022-08-21T14:43:12;6.55;;;3.30;;
30048;SDS011;16879;50.852;15.602;2022-08-21T14:45:37;8.02;;;4.53;;
30048;SDS011;16879;50.852;15.602;2022-08-21T14:48:05;4.45;;;4.00;;
30048;SDS011;16879;50.852;15.602;2022-08-21T14:50:32;4.38;;;3.97;;
30048;SDS011;16879;50.852;15.602;2022-08-21T14:52:57;10.52;;;3.80;;
30048;SDS011;16879;50.852;15.602;2022-08-21T14:55:23;5.22;;;3.72;;
30048;SDS011;16879;50.852;15.602;2022-08-21T14:57:50;7.00;;;3.88;;
30048;SDS011;16879;50.852;15.602;2022-08-21T15:00:19;5.30;;;4.10;;
30048;SDS011;16879;50.852;15.602;2022-08-21T15:02:48;6.72;;;3.78;;
30048;SDS011;16879;50.852;15.602;2022-08-21T15:05:14;4.32;;;3.72;;
30048;SDS011;16879;50.852;15.602;2022-08-21T15:07:40;5.57;;;4.07;;
30048;SDS011;16879;50.852;15.602;2022-08-21T15:10:06;7.18;;;4.20;;
30048;SDS011;16879;50.852;15.602;2022-08-21T15:12:32;6.32;;;4.20;;
30048;SDS011;16879;50.852;15.602;2022-08-21T15:14:58;5.65;;;3.92;;
30048;SDS011;16879;50.852;15.602;2022-08-21T15:17:24;4.22;;;3.60;;
30048;SDS011;16879;50.852;15.602;2022-08-21T15:19:50;4.70;;;4.25;;
30048;SDS011;16879;50.852;15.602;2022-08-21T15:22:16;3.80;;;3.50;;
30048;SDS011;16879;50.852;15.602;2022-08-21T15:24:42;7.13;;;4.38;;
30048;SDS011;16879;50.852;15.602;2022-08-21T15:27:08;8.43;;;6.18;;
30048;SDS011;16879;50.852;15.602;2022-08-21T15:29:37;4.95;;;4.40;;
30048;SDS011;16879;50.852;15.602;2022-08-21T15:32:15;9.35;;;4.22;;
30048;SDS011;16879;50.852;15.602;2022-08-21T15:34:44;6.97;;;5.38;;
30048;SDS011;16879;50.852;15.602;2022-08-21T15:37:10;7.70;;;4.80;;
30048;SDS011;16879;50.852;15.602;2022-08-21T15:39:36;6.13;;;4.35;;
30048;SDS011;16879;50.852;15.602;2022-08-21T15:42:02;7.03;;;4.25;;
30048;SDS011;16879;50.852;15.602;2022-08-21T15:44:28;6.47;;;4.68;;
30048;SDS011;16879;50.852;15.602;2022-08-21T15:46:54;6.50;;;5.53;;
30048;SDS011;16879;50.852;15.602;2022-08-21T15:49:21;6.25;;;5.20;;
30048;SDS011;16879;50.852;15.602;2022-08-21T15:51:47;5.40;;;4.75;;
30048;SDS011;16879;50.852;15.602;2022-08-21T15:54:14;6.18;;;5.50;;
30048;SDS011;16879;50.852;15.602;2022-08-21T15:56:43;7.43;;;4.50;;
30048;SDS011;16879;50.852;15.602;2022-08-21T15:59:16;8.55;;;5.63;;
30048;SDS011;16879;50.852;15.602;2022-08-21T16:01:48;5.75;;;5.10;;
30048;SDS011;16879;50.852;15.602;2022-08-21T16:04:18;5.60;;;4.70;;
30048;SDS011;16879;50.852;15.602;2022-08-21T16:06:46;8.18;;;5.28;;
30048;SDS011;16879;50.852;15.602;2022-08-21T16:09:14;5.50;;;4.82;;
30048;SDS011;16879;50.852;15.602;2022-08-21T16:11:40;7.50;;;5.20;;
30048;SDS011;16879;50.852;15.602;2022-08-21T16:14:07;7.00;;;5.20;;
30048;SDS011;16879;50.852;15.602;2022-08-21T16:16:36;5.78;;;5.22;;
30048;SDS011;16879;50.852;15.602;2022-08-21T16:19:03;6.25;;;5.63;;
30048;SDS011;16879;50.852;15.602;2022-08-21T16:21:31;5.57;;;4.50;;
30048;SDS011;16879;50.852;15.602;2022-08-21T16:23:58;6.28;;;4.80;;
30048;SDS011;16879;50.852;15.602;2022-08-21T16:26:23;7.32;;;5.30;;
30048;SDS011;16879;50.852;15.602;2022-08-21T16:28:50;4.40;;;4.10;;
30048;SDS011;16879;50.852;15.602;2022-08-21T16:31:18;6.38;;;5.63;;